Allouez, Michigan
Current Conditions -  °F | °C
As of 1:53 AM on Saturday 29 Nov 2014 (Local Time) from KCMX Reporting Station
Overcast Overcast  
Wind Chill: 12°   Ceiling: 3500
Heat Index: 19°   Visibility: 10mi
Dew Point: 12°   Wind: 5mph
Humidity: 74%   Direction: 180°S
Pressure: 29.74"   Gusts: NA
Location:  47.29°N, 88.41°W
Report Text: KCMX 290653Z AUTO 18004KT 10SM OVC035 M07/M11 A2974 RMK AO2 SLP092 T10721111
Loading
Personal Weather Stations






























Interactive Weather Map New forecast layout! Learn more

10-Day Weather Forecast

Advertisements
Track Severe Weather on mobile